Terminal Aerodrome Forecast
Issued by NWS Sioux Falls, SD

Home | Current Version | Previous Version | Graphics & Text | Print | Product List | Glossary On
Versions: 1 2 3 4 5 6 7 8 9 10 11 12 13
000
FTUS43 KFSD 011131
TAFHON
TAF
KHON 011131Z 0112/0212 VRB05KT P6SM OVC250
     FM011500 12009KT P6SM BKN250
     FM011900 15013KT P6SM SCT120 BKN200
     FM020100 15010KT P6SM FEW250=

USA.gov is the U.S. government's official web portal to all federal, state and local government web resources and services.